Time;durP1;ratioP1;P1;durP2;ratioP2;P2;SDS_P1;SDS_P2;PMS_P1;PMS_P2;Temp;Humidity;BMP_temperature;BMP_pressure;BME280_temperature;BME280_humidity;BME280_pressure;Samples;Min_cycle;Max_cycle;Signal;HPM_P1;HPM_P2
2022/03/06 00:00:35;;;;;;;3.17;0.80;;;0.80;99.90;;;;;;4934808;29;20087;-68
2022/03/06 00:03:02;;;;;;;2.33;0.85;;;0.80;99.90;;;;;;4934623;29;20028;-68
2022/03/06 00:05:28;;;;;;;6.15;1.20;;;0.80;99.90;;;;;;4934691;29;20039;-68
2022/03/06 00:07:56;;;;;;;4.80;0.90;;;0.80;99.90;;;;;;4934433;29;20032;-68
2022/03/06 00:10:22;;;;;;;6.50;1.05;;;0.70;99.90;;;;;;4934395;29;20042;-68
2022/03/06 00:12:48;;;;;;;3.35;0.70;;;0.70;99.90;;;;;;4934655;29;20028;-68
2022/03/06 00:15:14;;;;;;;2.03;0.60;;;0.70;99.90;;;;;;4934350;29;20055;-69
2022/03/06 00:17:40;;;;;;;2.72;0.90;;;0.70;99.90;;;;;;4934353;29;20059;-69
2022/03/06 00:20:08;;;;;;;4.00;0.80;;;0.70;99.90;;;;;;4934215;29;20395;-68
2022/03/06 00:22:35;;;;;;;2.38;0.90;;;0.80;99.90;;;;;;4934629;29;20028;-69
2022/03/06 00:25:02;;;;;;;2.03;0.70;;;0.80;99.90;;;;;;4934182;29;20024;-69
2022/03/06 00:27:27;;;;;;;1.95;0.80;;;0.80;99.90;;;;;;4934555;29;20032;-69
2022/03/06 00:29:53;;;;;;;2.53;0.80;;;0.80;99.90;;;;;;4934313;29;20098;-70
2022/03/06 00:32:19;;;;;;;3.45;0.90;;;0.80;99.90;;;;;;4934376;29;20020;-70
2022/03/06 00:34:46;;;;;;;3.55;1.10;;;0.70;99.90;;;;;;4934306;29;20063;-69
2022/03/06 00:37:12;;;;;;;0.73;0.63;;;0.80;99.90;;;;;;4933864;29;20095;-70
2022/03/06 00:39:37;;;;;;;4.03;0.60;;;0.70;99.90;;;;;;4934511;29;20024;-69
2022/03/06 00:42:03;;;;;;;3.15;0.80;;;0.70;99.90;;;;;;4934119;29;20103;-69
2022/03/06 00:44:29;;;;;;;3.63;0.77;;;0.70;99.90;;;;;;4934230;29;20436;-70
2022/03/06 00:46:55;;;;;;;3.63;0.90;;;0.70;99.90;;;;;;4934068;29;20111;-69
2022/03/06 00:49:20;;;;;;;1.73;0.68;;;0.60;99.90;;;;;;4934208;29;20035;-69
2022/03/06 00:51:46;;;;;;;2.92;1.08;;;0.60;99.90;;;;;;4934033;29;20102;-70
2022/03/06 00:54:12;;;;;;;1.92;0.70;;;0.50;99.90;;;;;;4934251;29;20020;-70
2022/03/06 00:56:37;;;;;;;2.15;1.00;;;0.50;99.90;;;;;;4933978;29;20511;-69
2022/03/06 00:59:03;;;;;;;4.70;0.93;;;0.50;99.90;;;;;;4933903;29;20028;-69
2022/03/06 01:01:29;;;;;;;3.65;0.90;;;0.50;99.90;;;;;;4935241;29;20035;-69
2022/03/06 01:03:54;;;;;;;4.38;1.15;;;0.50;99.90;;;;;;4937669;29;20055;-69
2022/03/06 01:06:20;;;;;;;3.78;0.88;;;0.50;99.90;;;;;;4937174;29;20106;-69
2022/03/06 01:08:46;;;;;;;3.42;0.70;;;0.40;99.90;;;;;;4937503;29;20039;-69
2022/03/06 01:11:12;;;;;;;3.72;0.88;;;0.40;99.90;;;;;;4937453;29;20039;-73
2022/03/06 01:13:38;;;;;;;3.13;0.82;;;0.40;99.90;;;;;;4937201;29;20400;-67
2022/03/06 01:16:04;;;;;;;1.90;0.70;;;0.40;99.90;;;;;;4937286;29;20032;-67
2022/03/06 01:18:30;;;;;;;2.38;0.93;;;0.40;99.90;;;;;;4937069;29;20028;-67
2022/03/06 01:20:55;;;;;;;5.10;1.20;;;0.40;99.90;;;;;;4937107;29;20040;-67
2022/03/06 01:23:21;;;;;;;6.95;0.90;;;0.30;99.90;;;;;;4937181;29;20064;-66
2022/03/06 01:25:47;;;;;;;1.75;0.68;;;0.30;99.90;;;;;;4937230;29;20031;-67
2022/03/06 01:28:13;;;;;;;3.85;0.80;;;0.30;99.90;;;;;;4935597;29;20434;-67
2022/03/06 01:30:38;;;;;;;6.32;1.02;;;0.30;99.90;;;;;;4937141;29;20043;-67
2022/03/06 01:33:04;;;;;;;2.00;0.75;;;0.30;99.90;;;;;;4945145;28;20038;-66
2022/03/06 01:35:30;;;;;;;2.40;0.93;;;0.30;99.90;;;;;;4936839;29;20475;-66
2022/03/06 01:37:56;;;;;;;3.45;0.88;;;0.30;99.90;;;;;;4936409;29;20051;-66
2022/03/06 01:40:21;;;;;;;2.75;0.90;;;0.30;99.90;;;;;;4936959;29;20036;-67
2022/03/06 01:42:49;;;;;;;3.85;1.20;;;0.30;99.90;;;;;;4936993;29;20491;-67
2022/03/06 01:45:16;;;;;;;1.30;0.65;;;0.30;99.90;;;;;;4936778;29;20042;-66
2022/03/06 01:47:47;;;;;;;2.47;1.10;;;0.30;99.90;;;;;;4936539;29;20032;-67
2022/03/06 01:50:22;;;;;;;3.22;0.70;;;0.30;99.90;;;;;;4936687;29;20040;-67
2022/03/06 01:52:53;;;;;;;3.53;0.85;;;0.30;99.90;;;;;;4936520;29;20024;-67
2022/03/06 01:55:20;;;;;;;2.95;0.80;;;0.30;99.90;;;;;;4936446;29;20031;-67
2022/03/06 01:57:46;;;;;;;2.60;0.80;;;0.20;99.90;;;;;;4936663;29;20055;-67
2022/03/06 02:00:21;;;;;;;3.13;0.93;;;0.20;99.90;;;;;;4936703;29;20460;-68
2022/03/06 02:02:47;;;;;;;2.30;0.95;;;0.20;99.90;;;;;;4936436;29;20499;-68
2022/03/06 02:05:13;;;;;;;2.88;1.00;;;0.20;99.90;;;;;;4936192;29;20060;-68
2022/03/06 02:07:39;;;;;;;3.00;0.80;;;0.20;99.90;;;;;;4936282;29;20079;-68
2022/03/06 02:10:06;;;;;;;1.58;0.80;;;0.30;99.90;;;;;;4935963;29;20031;-68
2022/03/06 02:12:33;;;;;;;2.35;1.10;;;0.20;99.90;;;;;;4936324;29;20372;-68
2022/03/06 02:15:00;;;;;;;1.80;1.00;;;0.30;99.90;;;;;;4936138;29;20382;-68
2022/03/06 02:17:27;;;;;;;1.10;0.90;;;0.20;99.90;;;;;;4936177;29;20423;-68
2022/03/06 02:20:05;;;;;;;0.80;0.60;;;0.20;99.90;;;;;;4936082;29;20039;-68
2022/03/06 02:22:33;;;;;;;2.50;0.80;;;0.20;99.90;;;;;;4936046;29;20086;-68
2022/03/06 02:54:03;;;;;;;1.90;0.85;;;0.20;99.90;;;;;;4934550;29;20401;-68
2022/03/06 02:56:29;;;;;;;3.40;1.05;;;0.20;99.90;;;;;;4935549;29;20054;-68
2022/03/06 02:58:54;;;;;;;1.48;0.75;;;0.20;99.90;;;;;;4935542;29;20047;-68
2022/03/06 03:01:20;;;;;;;1.48;0.90;;;0.20;99.90;;;;;;4935317;29;20468;-68
2022/03/06 03:37:26;;;;;;;2.47;0.70;;;0.10;99.90;;;;;;5551317;23;20064;-67
2022/03/06 03:39:51;;;;;;;3.50;0.88;;;0.10;99.90;;;;;;4935208;29;20035;-68
2022/03/06 03:42:17;;;;;;;3.35;0.82;;;0.10;99.90;;;;;;4935007;29;20238;-68
2022/03/06 03:44:43;;;;;;;3.80;0.80;;;0.20;99.90;;;;;;4935149;29;20533;-68
2022/03/06 03:47:09;;;;;;;3.67;1.48;;;0.10;99.90;;;;;;4934875;29;20035;-68
2022/03/06 03:49:34;;;;;;;2.85;0.80;;;0.10;99.90;;;;;;4934938;29;20039;-68
2022/03/06 03:52:00;;;;;;;2.67;1.10;;;0.10;99.90;;;;;;4934647;29;20479;-68
2022/03/06 03:54:26;;;;;;;1.35;0.73;;;0.00;99.90;;;;;;4934755;29;20066;-68
2022/03/06 03:56:51;;;;;;;2.45;0.70;;;0.00;99.90;;;;;;4935028;29;20037;-68
2022/03/06 03:59:17;;;;;;;1.27;0.70;;;0.00;99.90;;;;;;4934808;29;20031;-68
2022/03/06 04:01:43;;;;;;;1.02;0.70;;;-0.10;99.90;;;;;;4934950;29;20023;-68
2022/03/06 04:04:08;;;;;;;5.05;0.63;;;-0.10;99.90;;;;;;4934555;29;20042;-68
2022/03/06 04:06:34;;;;;;;1.67;0.77;;;-0.10;99.90;;;;;;4934626;29;20028;-68
2022/03/06 04:09:00;;;;;;;2.83;0.80;;;-0.10;99.90;;;;;;4934655;29;20047;-69
2022/03/06 04:11:25;;;;;;;1.17;0.85;;;-0.10;99.90;;;;;;4934672;29;20443;-69
2022/03/06 04:13:51;;;;;;;1.85;0.88;;;-0.10;99.90;;;;;;4934601;29;20115;-69
2022/03/06 04:16:17;;;;;;;2.58;0.90;;;-0.20;99.90;;;;;;4934796;29;20115;-68
2022/03/06 04:18:42;;;;;;;4.57;1.77;;;-0.20;99.90;;;;;;4934748;29;20115;-67
2022/03/06 04:21:08;;;;;;;1.75;0.93;;;-0.20;99.90;;;;;;4934423;29;20087;-68
2022/03/06 04:23:34;;;;;;;3.50;0.93;;;-0.20;99.90;;;;;;4934413;29;20566;-69
2022/03/06 04:26:00;;;;;;;4.05;0.98;;;-0.10;99.90;;;;;;4934648;29;20031;-69
2022/03/06 04:28:25;;;;;;;4.35;0.90;;;-0.20;99.90;;;;;;4934740;29;20471;-68
2022/03/06 04:30:51;;;;;;;2.97;0.80;;;-0.10;99.90;;;;;;4934473;29;20511;-68
2022/03/06 04:33:17;;;;;;;1.55;0.90;;;-0.20;99.90;;;;;;4934278;29;20383;-68
2022/03/06 04:35:42;;;;;;;2.33;0.80;;;-0.10;99.90;;;;;;4934570;29;20087;-67
2022/03/06 04:38:08;;;;;;;4.50;1.00;;;-0.10;99.90;;;;;;4937762;29;20044;-68
2022/03/06 04:40:34;;;;;;;2.50;0.77;;;-0.10;99.90;;;;;;4938141;29;20483;-68
2022/03/06 04:42:59;;;;;;;2.30;1.10;;;-0.10;99.90;;;;;;4938078;29;20028;-68
2022/03/06 04:45:26;;;;;;;4.28;0.90;;;-0.10;99.90;;;;;;4937949;29;20610;-68
2022/03/06 04:47:52;;;;;;;2.70;0.80;;;-0.10;99.90;;;;;;4937810;29;20502;-68
2022/03/06 04:50:18;;;;;;;4.30;1.00;;;-0.10;99.90;;;;;;4937674;29;20391;-68
2022/03/06 04:52:43;;;;;;;5.55;1.20;;;-0.10;99.90;;;;;;4937769;29;20039;-68
2022/03/06 04:55:09;;;;;;;3.47;1.00;;;-0.10;99.90;;;;;;4937687;29;20032;-68
2022/03/06 04:57:35;;;;;;;2.45;1.10;;;-0.10;99.90;;;;;;4937670;29;20103;-67
2022/03/06 05:00:01;;;;;;;2.25;1.00;;;-0.20;99.90;;;;;;4937511;29;20024;-68
2022/03/06 05:02:27;;;;;;;2.58;0.90;;;-0.20;99.90;;;;;;4937569;29;20388;-67
2022/03/06 05:04:53;;;;;;;4.55;0.95;;;-0.20;99.90;;;;;;4937555;29;20454;-67
2022/03/06 05:07:18;;;;;;;2.67;0.77;;;-0.20;99.90;;;;;;4937505;29;20019;-69
2022/03/06 05:09:44;;;;;;;4.88;1.10;;;-0.20;99.90;;;;;;4937678;29;20067;-68
2022/03/06 05:12:10;;;;;;;3.92;0.90;;;-0.20;99.90;;;;;;4937557;29;20035;-68
2022/03/06 05:14:36;;;;;;;1.63;0.90;;;-0.20;99.90;;;;;;4937533;29;20479;-68
2022/03/06 05:17:01;;;;;;;3.30;1.33;;;-0.20;99.90;;;;;;4937258;29;20020;-69
2022/03/06 05:19:27;;;;;;;4.95;0.80;;;-0.20;99.90;;;;;;4937295;29;20031;-68
2022/03/06 05:21:53;;;;;;;3.10;0.82;;;-0.10;99.90;;;;;;4937359;29;20185;-68
2022/03/06 05:24:18;;;;;;;3.13;1.00;;;-0.10;99.90;;;;;;4937058;29;20028;-67
2022/03/06 05:26:44;;;;;;;0.82;0.65;;;-0.20;99.90;;;;;;4937162;29;20039;-68
2022/03/06 05:29:10;;;;;;;3.83;0.90;;;-0.20;99.90;;;;;;4936904;29;20118;-68
2022/03/06 05:31:36;;;;;;;4.18;0.85;;;-0.20;99.90;;;;;;4937409;29;20020;-68
2022/03/06 05:34:01;;;;;;;1.52;1.02;;;-0.20;99.90;;;;;;4936904;29;20419;-67
2022/03/06 05:36:27;;;;;;;7.07;1.15;;;-0.10;99.90;;;;;;4936769;29;20023;-69
2022/03/06 05:38:53;;;;;;;1.73;0.77;;;-0.10;99.90;;;;;;4937169;29;20032;-69
2022/03/06 05:41:18;;;;;;;4.07;0.85;;;0.30;99.90;;;;;;4936721;29;20475;-69
2022/03/06 05:43:44;;;;;;;3.90;1.08;;;1.20;99.90;;;;;;4944419;29;20034;-78
2022/03/06 05:46:10;;;;;;;3.53;0.90;;;1.00;99.90;;;;;;4955155;29;20027;-72
2022/03/06 05:48:35;;;;;;;2.35;1.02;;;0.90;99.90;;;;;;4955146;28;20427;-71
2022/03/06 05:51:02;;;;;;;1.92;0.93;;;0.80;99.90;;;;;;4955460;29;20031;-68
2022/03/06 05:53:27;;;;;;;2.40;0.80;;;0.70;99.90;;;;;;4955184;28;20030;-71
2022/03/06 05:55:53;;;;;;;3.20;0.80;;;0.70;99.90;;;;;;4955182;29;20027;-74
2022/03/06 05:58:19;;;;;;;5.75;0.90;;;0.70;99.90;;;;;;4955121;29;20027;-70
2022/03/06 06:00:44;;;;;;;2.25;1.20;;;0.60;99.90;;;;;;4955523;29;20027;-71
2022/03/06 06:03:10;;;;;;;1.83;0.82;;;0.60;99.90;;;;;;4954975;29;20479;-70
2022/03/06 06:05:36;;;;;;;2.38;0.90;;;0.60;99.90;;;;;;4955649;28;20532;-71
2022/03/06 06:08:02;;;;;;;2.05;0.80;;;0.60;99.90;;;;;;4957813;28;20035;-71
2022/03/06 06:10:27;;;;;;;3.03;1.13;;;0.70;99.90;;;;;;4959475;28;20031;-71
2022/03/06 06:12:53;;;;;;;1.58;0.70;;;0.70;99.90;;;;;;4954991;29;20051;-70
2022/03/06 06:15:19;;;;;;;3.47;1.00;;;0.70;99.90;;;;;;4954790;29;20031;-71
2022/03/06 06:17:44;;;;;;;5.13;0.90;;;0.80;99.90;;;;;;4962254;28;20081;-71
2022/03/06 06:20:11;;;;;;;5.32;0.95;;;0.80;99.90;;;;;;4974283;28;20034;-70
2022/03/06 06:22:36;;;;;;;2.15;0.93;;;0.80;99.90;;;;;;4974783;28;20494;-70
2022/03/06 06:25:04;;;;;;;3.75;1.00;;;0.80;99.90;;;;;;4974676;28;20034;-69
2022/03/06 06:27:30;;;;;;;3.05;0.90;;;1.00;99.90;;;;;;4973649;28;20027;-69
2022/03/06 06:29:56;;;;;;;1.52;0.80;;;1.00;99.90;;;;;;4955623;28;20073;-69
2022/03/06 06:32:22;;;;;;;1.48;0.90;;;1.00;99.90;;;;;;4955051;28;20479;-69
2022/03/06 06:34:48;;;;;;;1.65;0.80;;;1.00;99.90;;;;;;4954753;29;20030;-69
2022/03/06 06:37:15;;;;;;;3.33;1.48;;;1.00;99.90;;;;;;4954222;28;20122;-69
2022/03/06 06:39:41;;;;;;;1.13;0.85;;;1.00;99.90;;;;;;4954133;28;20023;-69
2022/03/06 06:42:07;;;;;;;2.50;0.95;;;1.00;99.90;;;;;;4954246;28;20427;-69
2022/03/06 06:44:33;;;;;;;2.83;0.73;;;1.00;99.90;;;;;;4954894;28;20048;-69
2022/03/06 06:47:00;;;;;;;2.78;0.77;;;1.10;99.90;;;;;;4954872;28;20488;-69
2022/03/06 06:49:26;;;;;;;1.85;0.98;;;1.10;99.90;;;;;;4954650;28;20543;-71
2022/03/06 06:51:51;;;;;;;3.05;1.00;;;1.00;99.90;;;;;;4954740;29;20106;-71
2022/03/06 06:54:17;;;;;;;2.88;1.38;;;1.10;99.90;;;;;;4954862;28;20031;-70
2022/03/06 06:56:43;;;;;;;4.38;0.98;;;1.10;99.90;;;;;;4954844;29;20038;-70
2022/03/06 06:59:10;;;;;;;1.10;0.80;;;1.20;99.90;;;;;;4954010;28;20439;-73
2022/03/06 07:01:35;;;;;;;3.08;1.10;;;1.50;99.90;;;;;;4954895;28;20402;-73
2022/03/06 07:04:01;;;;;;;4.03;0.85;;;2.20;99.90;;;;;;4954499;28;20025;-74
2022/03/06 07:06:27;;;;;;;2.65;1.10;;;2.10;99.90;;;;;;4954706;28;20035;-74
2022/03/06 07:08:54;;;;;;;2.72;0.90;;;1.90;99.90;;;;;;4953204;29;20459;-74
2022/03/06 07:11:20;;;;;;;1.90;0.90;;;1.70;99.90;;;;;;4954760;28;20035;-74
2022/03/06 07:13:45;;;;;;;1.88;0.98;;;1.60;99.90;;;;;;4954695;29;20093;-72
2022/03/06 07:16:11;;;;;;;2.40;0.63;;;1.50;99.90;;;;;;4954297;29;20031;-72
2022/03/06 07:18:37;;;;;;;1.58;0.70;;;1.40;99.90;;;;;;4954710;28;20031;-81
2022/03/06 07:21:03;;;;;;;19.20;8.00;;;1.50;99.90;;;;;;4954305;29;20042;-73
2022/03/06 07:23:30;;;;;;;41.72;17.77;;;1.40;99.90;;;;;;4954200;29;20109;-74
2022/03/06 07:25:56;;;;;;;23.60;9.95;;;1.40;99.90;;;;;;4954672;28;20461;-70
2022/03/06 07:28:21;;;;;;;15.13;6.20;;;1.40;99.90;;;;;;4954416;28;20128;-80
2022/03/06 07:30:48;;;;;;;24.83;10.70;;;1.50;99.90;;;;;;4954211;28;20379;-71
2022/03/06 07:33:14;;;;;;;8.02;4.05;;;1.70;99.90;;;;;;4954003;28;20049;-70
2022/03/06 07:35:40;;;;;;;4.18;2.33;;;1.70;99.90;;;;;;4954202;28;20038;-70
2022/03/06 07:38:06;;;;;;;7.28;3.65;;;1.70;99.90;;;;;;4953595;28;20199;-70
2022/03/06 07:40:32;;;;;;;2.67;2.20;;;1.70;99.90;;;;;;4954353;29;20118;-70
2022/03/06 07:42:58;;;;;;;2.03;1.08;;;1.70;99.90;;;;;;4952804;29;20023;-70
2022/03/06 07:45:24;;;;;;;2.95;0.88;;;1.70;99.90;;;;;;4953920;28;20413;-70
2022/03/06 07:47:49;;;;;;;4.00;0.90;;;1.70;99.90;;;;;;4953866;29;20027;-69
2022/03/06 07:50:16;;;;;;;2.60;0.90;;;1.70;99.90;;;;;;4953860;29;20071;-69
2022/03/06 07:52:42;;;;;;;1.83;0.90;;;1.70;99.90;;;;;;4953999;28;20020;-69
2022/03/06 07:55:09;;;;;;;3.00;1.20;;;1.70;99.90;;;;;;4952925;28;20046;-70
2022/03/06 07:57:35;;;;;;;5.90;1.08;;;1.70;99.90;;;;;;4953688;28;20023;-70
2022/03/06 08:00:03;;;;;;;34.60;16.13;;;1.80;99.90;;;;;;4953865;28;20118;-70
2022/03/06 08:02:29;;;;;;;6.00;3.17;;;1.80;99.90;;;;;;4953762;28;20542;-72
2022/03/06 08:04:54;;;;;;;3.03;1.45;;;1.80;99.90;;;;;;4953844;29;20082;-69
2022/03/06 08:07:20;;;;;;;1.98;1.67;;;1.80;99.90;;;;;;4953630;29;20394;-70
2022/03/06 08:09:46;;;;;;;4.00;1.00;;;1.90;99.90;;;;;;4954014;28;20031;-69
2022/03/06 08:12:12;;;;;;;2.03;0.80;;;1.90;99.90;;;;;;4956282;29;20035;-66
2022/03/06 08:14:37;;;;;;;2.38;1.52;;;1.90;99.90;;;;;;4957691;29;20415;-68
2022/03/06 08:17:03;;;;;;;2.05;0.90;;;2.20;99.90;;;;;;4956225;29;20031;-68
2022/03/06 08:19:29;;;;;;;1.42;0.75;;;2.80;99.90;;;;;;4957686;29;20027;-68
2022/03/06 08:21:55;;;;;;;2.10;0.93;;;3.20;99.90;;;;;;4957938;29;20027;-67
2022/03/06 08:24:21;;;;;;;3.83;1.13;;;3.40;99.90;;;;;;4957305;29;20501;-68
2022/03/06 08:26:46;;;;;;;1.10;0.75;;;3.70;99.90;;;;;;4957466;28;20054;-68
2022/03/06 08:29:13;;;;;;;1.63;1.20;;;3.90;99.90;;;;;;4957268;29;20070;-68
2022/03/06 08:31:39;;;;;;;1.90;0.82;;;4.10;99.90;;;;;;4957647;29;20027;-68
2022/03/06 08:34:04;;;;;;;1.00;0.70;;;4.30;99.90;;;;;;4957239;28;20031;-68
2022/03/06 08:36:31;;;;;;;2.03;1.00;;;4.50;99.90;;;;;;4957010;28;20042;-69
2022/03/06 08:38:57;;;;;;;1.15;0.77;;;4.50;99.90;;;;;;4957293;28;20074;-68
2022/03/06 08:41:22;;;;;;;1.05;0.68;;;4.60;99.90;;;;;;4957083;28;20028;-68
2022/03/06 08:43:48;;;;;;;1.85;0.80;;;4.30;99.90;;;;;;4957215;29;20025;-68
2022/03/06 08:46:14;;;;;;;1.38;0.60;;;4.00;99.90;;;;;;4956982;28;20475;-68
2022/03/06 08:48:39;;;;;;;3.35;0.55;;;3.90;99.90;;;;;;4955596;29;20035;-70
2022/03/06 08:51:06;;;;;;;1.15;0.57;;;3.80;99.90;;;;;;4957226;29;20031;-70
2022/03/06 08:53:32;;;;;;;1.33;0.70;;;3.70;99.90;;;;;;4956811;28;20020;-70
2022/03/06 08:55:59;;;;;;;1.58;0.82;;;3.60;99.90;;;;;;4957106;28;20035;-70
2022/03/06 08:58:25;;;;;;;3.15;0.63;;;3.50;99.90;;;;;;4956934;29;20078;-70
2022/03/06 09:00:50;;;;;;;1.92;0.95;;;3.50;99.90;;;;;;4957093;29;20039;-70
2022/03/06 09:03:16;;;;;;;3.15;1.00;;;3.50;99.90;;;;;;4956866;29;20023;-70
2022/03/06 09:05:42;;;;;;;2.35;0.70;;;3.40;99.90;;;;;;4956712;28;20118;-70
2022/03/06 09:08:12;;;;;;;2.15;0.65;;;3.40;99.90;;;;;;4956835;28;20038;-70
2022/03/06 09:10:40;;;;;;;2.10;0.70;;;3.40;99.90;;;;;;4956919;28;20127;-73
2022/03/06 09:13:08;;;;;;;5.55;3.45;;;3.40;99.90;;;;;;4956679;28;20094;-71
2022/03/06 09:15:35;;;;;;;4.72;0.82;;;5.80;99.90;;;;;;4956428;28;20110;-72
2022/03/06 09:18:01;;;;;;;1.52;0.75;;;7.60;99.90;;;;;;4956503;28;20031;-73
2022/03/06 09:20:27;;;;;;;2.00;0.80;;;7.40;96.60;;;;;;4956238;29;20501;-73
2022/03/06 09:22:53;;;;;;;1.35;0.60;;;6.50;96.50;;;;;;4955539;28;20031;-73
2022/03/06 09:25:20;;;;;;;0.70;0.50;;;5.70;93.30;;;;;;4956434;28;20020;-73
2022/03/06 09:27:45;;;;;;;1.65;0.60;;;5.10;95.20;;;;;;4956275;28;20035;-73
2022/03/06 09:30:13;;;;;;;1.92;0.80;;;4.70;96.90;;;;;;4956400;28;20046;-74
2022/03/06 09:32:39;;;;;;;3.30;0.70;;;4.40;99.00;;;;;;4956419;28;20513;-73
2022/03/06 09:35:08;;;;;;;3.20;0.70;;;4.30;99.50;;;;;;4956180;29;20039;-71
2022/03/06 09:37:34;;;;;;;2.65;0.63;;;4.20;99.90;;;;;;4955574;28;20043;-73
2022/03/06 09:40:00;;;;;;;1.90;0.68;;;4.10;99.90;;;;;;4956085;28;20038;-73
2022/03/06 09:42:27;;;;;;;1.02;0.70;;;4.10;99.90;;;;;;4955823;28;20110;-72
2022/03/06 09:44:52;;;;;;;1.27;0.70;;;4.00;99.90;;;;;;4955763;28;20118;-73
2022/03/06 09:47:19;;;;;;;0.55;0.55;;;4.00;99.90;;;;;;4955996;28;20487;-72
2022/03/06 09:49:46;;;;;;;0.93;0.70;;;4.00;99.90;;;;;;4955686;28;20515;-72
2022/03/06 09:52:13;;;;;;;1.08;0.60;;;4.00;99.90;;;;;;4956056;28;20427;-72
2022/03/06 09:54:39;;;;;;;1.38;0.68;;;4.00;99.90;;;;;;4955811;28;20027;-73
2022/03/06 09:57:05;;;;;;;0.80;0.50;;;4.00;99.90;;;;;;4955720;29;20491;-72
2022/03/06 09:59:32;;;;;;;1.40;0.60;;;4.00;99.90;;;;;;4955606;29;20045;-72
2022/03/06 10:02:02;;;;;;;3.80;0.70;;;4.10;99.90;;;;;;4955484;28;20034;-72
2022/03/06 10:04:29;;;;;;;0.70;0.50;;;4.10;99.90;;;;;;4955538;28;20075;-72
2022/03/06 10:07:06;;;;;;;2.78;0.60;;;4.10;99.90;;;;;;4955653;28;20027;-72
2022/03/06 10:09:34;;;;;;;1.90;0.55;;;4.10;99.90;;;;;;4953734;29;20146;-72
2022/03/06 10:12:00;;;;;;;2.20;0.70;;;4.10;99.90;;;;;;4955213;28;20047;-72
2022/03/06 10:14:37;;;;;;;1.15;0.60;;;4.10;99.90;;;;;;4955632;28;20031;-74
2022/03/06 10:17:11;;;;;;;2.63;0.70;;;4.20;99.90;;;;;;4954175;29;20388;-74
2022/03/06 10:20:01;;;;;;;1.20;0.70;;;4.20;99.90;;;;;;4955226;28;20075;-74
2022/03/06 10:22:35;;;;;;;1.15;0.50;;;4.30;99.90;;;;;;4955554;28;20392;-74
2022/03/06 10:25:16;;;;;;;2.85;0.50;;;4.30;99.90;;;;;;4955515;28;20038;-73
2022/03/06 10:27:48;;;;;;;0.50;0.50;;;4.30;99.80;;;;;;4955301;28;20022;-74
2022/03/06 10:30:25;;;;;;;1.92;0.70;;;4.40;99.10;;;;;;4953640;29;20039;-74
2022/03/06 10:32:51;;;;;;;0.50;0.50;;;4.50;98.90;;;;;;4955396;28;20376;-74
2022/03/06 10:35:17;;;;;;;0.68;0.50;;;4.50;98.30;;;;;;4955115;28;20112;-73
2022/03/06 10:37:43;;;;;;;0.57;0.57;;;4.50;97.70;;;;;;4954922;28;20098;-73
2022/03/06 10:40:14;;;;;;;0.82;0.50;;;4.60;97.70;;;;;;4955045;28;20547;-74
2022/03/06 10:42:41;;;;;;;1.20;0.60;;;4.60;97.50;;;;;;4953854;29;20071;-74
2022/03/06 10:45:22;;;;;;;3.70;0.70;;;4.60;97.70;;;;;;4955082;28;20030;-73
2022/03/06 10:47:47;;;;;;;1.20;0.57;;;4.50;98.10;;;;;;4954937;28;20031;-74
2022/03/06 10:50:20;;;;;;;1.27;0.50;;;4.50;97.70;;;;;;4954751;29;20386;-74
2022/03/06 10:52:45;;;;;;;0.85;0.50;;;4.50;98.00;;;;;;4954964;28;20027;-74
2022/03/06 10:55:11;;;;;;;2.08;0.50;;;4.50;97.60;;;;;;4954804;28;20106;-74
2022/03/06 10:57:37;;;;;;;0.40;0.40;;;4.50;97.90;;;;;;4954493;28;20563;-74
2022/03/06 11:00:04;;;;;;;1.48;0.50;;;4.50;98.30;;;;;;4954674;28;20542;-75
2022/03/06 11:02:32;;;;;;;1.45;0.40;;;4.40;98.30;;;;;;4954362;28;20028;-75
2022/03/06 11:05:00;;;;;;;0.95;0.57;;;4.50;98.70;;;;;;4953305;29;20114;-75
2022/03/06 11:07:29;;;;;;;0.93;0.57;;;4.50;98.60;;;;;;4954674;28;20070;-75
2022/03/06 11:09:57;;;;;;;1.00;0.50;;;4.50;98.40;;;;;;4954458;28;20038;-74
2022/03/06 11:12:25;;;;;;;1.02;0.50;;;4.50;98.40;;;;;;4954323;28;20023;-74
2022/03/06 11:14:52;;;;;;;1.27;0.68;;;4.50;98.90;;;;;;4954318;28;20031;-74
2022/03/06 11:17:17;;;;;;;1.25;0.40;;;4.50;99.20;;;;;;4954442;28;20026;-74
2022/03/06 11:19:43;;;;;;;1.58;0.57;;;4.50;99.40;;;;;;4954532;29;20027;-73
2022/03/06 11:22:27;;;;;;;0.70;0.70;;;4.60;99.10;;;;;;4954582;29;20054;-73
2022/03/06 11:25:02;;;;;;;0.47;0.45;;;4.60;98.80;;;;;;4954570;28;20050;-75
2022/03/06 11:27:44;;;;;;;1.23;0.60;;;4.60;98.60;;;;;;4954198;28;20027;-75
2022/03/06 11:30:20;;;;;;;2.55;0.50;;;4.70;98.60;;;;;;4954043;28;20035;-73
2022/03/06 11:33:08;;;;;;;2.90;0.80;;;4.80;98.00;;;;;;4954116;28;20055;-76
2022/03/06 11:35:42;;;;;;;2.00;0.60;;;4.80;97.50;;;;;;4953524;29;20035;-75
2022/03/06 11:38:13;;;;;;;1.58;0.60;;;4.90;97.50;;;;;;4953882;28;20051;-74
2022/03/06 11:40:48;;;;;;;1.27;0.50;;;4.90;97.60;;;;;;4953884;28;20027;-71
2022/03/06 11:43:31;;;;;;;2.83;0.77;;;4.90;97.20;;;;;;4954070;28;20023;-73
2022/03/06 11:46:18;;;;;;;0.98;0.55;;;5.00;96.80;;;;;;4953765;28;20086;-72
2022/03/06 11:48:44;;;;;;;1.58;0.50;;;5.00;96.60;;;;;;4953581;28;20058;-74
2022/03/06 11:51:22;;;;;;;1.42;0.65;;;5.00;96.80;;;;;;4953914;28;20138;-75
2022/03/06 11:54:02;;;;;;;0.90;0.47;;;5.00;96.30;;;;;;4954163;28;20039;-74
2022/03/06 11:56:39;;;;;;;0.65;0.65;;;5.10;96.10;;;;;;4953983;28;20058;-74
2022/03/06 11:59:10;;;;;;;0.70;0.70;;;5.10;95.60;;;;;;4954112;28;20089;-74
2022/03/06 12:01:48;;;;;;;0.55;0.50;;;5.10;95.80;;;;;;4953937;28;20155;-72
2022/03/06 12:04:15;;;;;;;0.45;0.45;;;5.10;94.90;;;;;;4954232;28;20035;-71
2022/03/06 12:06:48;;;;;;;0.55;0.55;;;5.10;94.70;;;;;;4953955;28;20024;-74
2022/03/06 12:09:16;;;;;;;0.63;0.63;;;5.10;94.80;;;;;;4953803;28;20118;-75
2022/03/06 12:11:43;;;;;;;1.13;1.02;;;5.10;95.00;;;;;;4953560;28;20110;-72
2022/03/06 12:14:14;;;;;;;0.55;0.55;;;5.10;95.00;;;;;;4953666;28;20031;-73
2022/03/06 12:17:01;;;;;;;1.52;0.73;;;5.10;94.70;;;;;;4953796;28;20027;-73
2022/03/06 12:19:32;;;;;;;5.53;2.75;;;5.10;94.60;;;;;;4953788;28;20035;-72
2022/03/06 12:22:14;;;;;;;1.67;1.15;;;5.10;94.80;;;;;;4953790;29;20111;-72
2022/03/06 12:24:46;;;;;;;2.80;1.30;;;5.10;94.70;;;;;;4953451;28;20106;-72
2022/03/06 12:27:23;;;;;;;2.67;1.52;;;5.10;94.80;;;;;;4953446;28;20587;-70
2022/03/06 12:29:48;;;;;;;1.08;0.70;;;5.20;97.00;;;;;;4953508;28;20035;-72
2022/03/06 12:32:26;;;;;;;1.20;1.10;;;5.30;94.70;;;;;;4953593;29;20030;-71
2022/03/06 12:35:07;;;;;;;1.17;0.60;;;5.30;94.20;;;;;;4953496;28;20035;-71
2022/03/06 12:37:39;;;;;;;8.27;5.13;;;5.30;94.30;;;;;;4953083;28;20046;-72
2022/03/06 12:40:09;;;;;;;3.83;1.30;;;5.20;94.50;;;;;;4953453;28;20034;-72
2022/03/06 12:42:36;;;;;;;;;;;5.20;95.20;;;;;;4953785;29;20448;-71
2022/03/06 12:45:13;;;;;;;0.80;0.80;;;5.20;95.50;;;;;;4953394;28;19913;-71
2022/03/06 12:47:43;;;;;;;1.13;0.68;;;5.20;95.70;;;;;;4953247;28;20031;-71
2022/03/06 12:50:11;;;;;;;1.02;0.82;;;5.10;96.00;;;;;;4953197;28;20067;-71
2022/03/06 12:52:38;;;;;;;0.70;0.50;;;5.10;96.60;;;;;;4953509;28;20020;-72
2022/03/06 12:55:10;;;;;;;2.17;0.50;;;5.10;96.70;;;;;;4953267;28;20039;-72
2022/03/06 12:57:38;;;;;;;1.83;1.25;;;5.20;96.70;;;;;;4954643;28;20031;-71
2022/03/06 13:00:15;;;;;;;1.25;0.90;;;5.20;96.30;;;;;;4957139;28;20031;-72
2022/03/06 13:02:45;;;;;;;6.05;2.97;;;6.40;99.90;;;;;;4957045;28;20042;-72
2022/03/06 13:05:11;;;;;;;2.83;1.50;;;6.60;95.50;;;;;;4956834;28;20086;-72
2022/03/06 13:07:36;;;;;;;1.42;0.70;;;6.30;93.20;;;;;;4956636;29;20028;-74
2022/03/06 13:10:08;;;;;;;0.60;0.40;;;6.00;92.80;;;;;;4956815;29;20490;-73
2022/03/06 13:12:37;;;;;;;1.23;0.40;;;5.90;93.00;;;;;;4956857;28;20378;-73
2022/03/06 13:15:23;;;;;;;0.43;0.40;;;5.70;93.70;;;;;;4956761;28;20022;-75
2022/03/06 13:18:09;;;;;;;1.55;0.40;;;5.70;93.80;;;;;;4956153;29;20047;-75
2022/03/06 13:20:39;;;;;;;0.50;0.50;;;5.60;93.90;;;;;;4955977;28;20039;-75
2022/03/06 13:23:06;;;;;;;2.08;0.55;;;5.50;95.10;;;;;;4956273;28;20059;-74
2022/03/06 13:25:32;;;;;;;0.50;0.40;;;5.50;96.60;;;;;;4955458;29;20081;-74
2022/03/06 13:27:58;;;;;;;0.50;0.50;;;5.40;97.40;;;;;;4956379;28;20028;-74
2022/03/06 13:30:30;;;;;;;0.60;0.40;;;5.30;98.20;;;;;;4956040;28;20042;-74
2022/03/06 13:33:00;;;;;;;0.40;0.40;;;5.30;98.60;;;;;;4956385;28;20050;-75
2022/03/06 13:35:29;;;;;;;;;;;5.30;98.70;;;;;;4956700;28;20503;-76
2022/03/06 13:38:00;;;;;;;0.47;0.40;;;5.30;98.80;;;;;;4956024;28;19918;-75
2022/03/06 13:40:33;;;;;;;1.98;0.52;;;5.30;98.80;;;;;;4955980;28;20114;-75
2022/03/06 13:42:59;;;;;;;1.00;0.50;;;5.30;99.00;;;;;;4956221;28;20031;-75
2022/03/06 13:45:25;;;;;;;1.60;0.50;;;5.30;99.10;;;;;;4956092;28;20383;-74
2022/03/06 13:47:53;;;;;;;0.55;0.50;;;5.30;98.50;;;;;;4955801;28;20039;-75
2022/03/06 13:50:22;;;;;;;0.50;0.50;;;5.30;99.00;;;;;;4956061;28;20043;-73
2022/03/06 13:52:49;;;;;;;0.55;0.40;;;5.30;98.80;;;;;;4955718;28;20030;-74
2022/03/06 13:55:16;;;;;;;0.95;0.60;;;5.30;99.20;;;;;;4959020;28;20081;-74
2022/03/06 13:58:18;;;;;;;1.00;0.57;;;5.30;99.00;;;;;;4974804;28;20041;-74
2022/03/06 14:00:44;;;;;;;0.40;0.40;;;5.30;99.50;;;;;;4915056;29;20024;-74